sensor_id;sensor_type;location;lat;lon;timestamp;P1;durP1;ratioP1;P2;durP2;ratioP2
18166;SDS011;9208;42.688;23.404;2022-11-04T00:02:22;12.63;;;7.43;;
18166;SDS011;9208;42.688;23.404;2022-11-04T00:04:48;9.93;;;7.50;;
18166;SDS011;9208;42.688;23.404;2022-11-04T00:07:13;7.80;;;6.77;;
18166;SDS011;9208;42.688;23.404;2022-11-04T00:09:57;12.63;;;7.60;;
18166;SDS011;9208;42.688;23.404;2022-11-04T00:12:22;10.37;;;6.97;;
18166;SDS011;9208;42.688;23.404;2022-11-04T00:14:51;9.43;;;7.83;;
18166;SDS011;9208;42.688;23.404;2022-11-04T00:17:16;8.57;;;7.73;;
18166;SDS011;9208;42.688;23.404;2022-11-04T00:19:52;11.97;;;7.80;;
18166;SDS011;9208;42.688;23.404;2022-11-04T00:22:38;11.20;;;8.10;;
18166;SDS011;9208;42.688;23.404;2022-11-04T00:25:23;11.10;;;7.97;;
18166;SDS011;9208;42.688;23.404;2022-11-04T00:28:11;10.47;;;8.63;;
18166;SDS011;9208;42.688;23.404;2022-11-04T00:30:56;10.73;;;7.70;;
18166;SDS011;9208;42.688;23.404;2022-11-04T00:33:22;9.60;;;7.63;;
18166;SDS011;9208;42.688;23.404;2022-11-04T00:35:51;11.07;;;8.70;;
18166;SDS011;9208;42.688;23.404;2022-11-04T00:38:21;14.37;;;8.73;;
18166;SDS011;9208;42.688;23.404;2022-11-04T00:40:48;14.20;;;8.50;;
18166;SDS011;9208;42.688;23.404;2022-11-04T00:43:14;9.67;;;8.00;;
18166;SDS011;9208;42.688;23.404;2022-11-04T00:45:40;13.57;;;8.47;;
18166;SDS011;9208;42.688;23.404;2022-11-04T00:48:06;9.27;;;8.00;;
18166;SDS011;9208;42.688;23.404;2022-11-04T00:50:31;10.13;;;8.17;;
18166;SDS011;9208;42.688;23.404;2022-11-04T00:53:00;11.70;;;7.77;;
18166;SDS011;9208;42.688;23.404;2022-11-04T00:55:26;13.07;;;8.07;;
18166;SDS011;9208;42.688;23.404;2022-11-04T00:57:52;13.33;;;8.60;;
18166;SDS011;9208;42.688;23.404;2022-11-04T01:00:21;10.63;;;8.13;;
18166;SDS011;9208;42.688;23.404;2022-11-04T01:02:47;16.27;;;8.47;;
18166;SDS011;9208;42.688;23.404;2022-11-04T01:05:12;10.53;;;8.33;;
18166;SDS011;9208;42.688;23.404;2022-11-04T01:07:38;11.80;;;8.50;;
18166;SDS011;9208;42.688;23.404;2022-11-04T01:10:04;11.70;;;9.13;;
18166;SDS011;9208;42.688;23.404;2022-11-04T01:12:30;11.80;;;9.03;;
18166;SDS011;9208;42.688;23.404;2022-11-04T01:14:58;12.37;;;8.57;;
18166;SDS011;9208;42.688;23.404;2022-11-04T01:17:24;10.93;;;8.53;;
18166;SDS011;9208;42.688;23.404;2022-11-04T01:19:49;10.90;;;8.77;;
18166;SDS011;9208;42.688;23.404;2022-11-04T01:22:14;11.50;;;8.37;;
18166;SDS011;9208;42.688;23.404;2022-11-04T01:24:41;11.33;;;8.57;;
18166;SDS011;9208;42.688;23.404;2022-11-04T01:27:06;11.67;;;8.73;;
18166;SDS011;9208;42.688;23.404;2022-11-04T01:29:32;14.23;;;9.07;;
18166;SDS011;9208;42.688;23.404;2022-11-04T01:31:57;11.13;;;9.23;;
18166;SDS011;9208;42.688;23.404;2022-11-04T01:34:23;13.73;;;9.10;;
18166;SDS011;9208;42.688;23.404;2022-11-04T01:36:48;12.63;;;9.10;;
18166;SDS011;9208;42.688;23.404;2022-11-04T01:39:14;12.80;;;9.10;;
18166;SDS011;9208;42.688;23.404;2022-11-04T01:41:39;12.00;;;8.77;;
18166;SDS011;9208;42.688;23.404;2022-11-04T01:47:13;12.27;;;8.90;;
18166;SDS011;9208;42.688;23.404;2022-11-04T01:49:42;14.33;;;10.17;;
18166;SDS011;9208;42.688;23.404;2022-11-04T01:52:12;12.43;;;8.90;;
18166;SDS011;9208;42.688;23.404;2022-11-04T01:54:44;13.67;;;9.40;;
18166;SDS011;9208;42.688;23.404;2022-11-04T01:57:13;10.57;;;9.23;;
18166;SDS011;9208;42.688;23.404;2022-11-04T01:59:43;12.63;;;9.50;;
18166;SDS011;9208;42.688;23.404;2022-11-04T02:02:08;12.67;;;9.87;;
18166;SDS011;9208;42.688;23.404;2022-11-04T02:04:34;11.03;;;9.90;;
18166;SDS011;9208;42.688;23.404;2022-11-04T02:07:02;12.83;;;10.50;;
18166;SDS011;9208;42.688;23.404;2022-11-04T02:09:30;10.77;;;9.33;;
18166;SDS011;9208;42.688;23.404;2022-11-04T02:11:57;13.23;;;9.63;;
18166;SDS011;9208;42.688;23.404;2022-11-04T02:14:41;11.70;;;9.77;;
18166;SDS011;9208;42.688;23.404;2022-11-04T02:17:13;14.93;;;9.67;;
18166;SDS011;9208;42.688;23.404;2022-11-04T02:22:20;17.17;;;10.57;;
18166;SDS011;9208;42.688;23.404;2022-11-04T02:30:45;13.17;;;10.30;;
18166;SDS011;9208;42.688;23.404;2022-11-04T02:33:27;12.50;;;10.07;;
18166;SDS011;9208;42.688;23.404;2022-11-04T02:39:57;15.63;;;10.73;;
18166;SDS011;9208;42.688;23.404;2022-11-04T02:41:55;14.73;;;10.87;;
18166;SDS011;9208;42.688;23.404;2022-11-04T02:47:38;12.20;;;10.43;;
18166;SDS011;9208;42.688;23.404;2022-11-04T02:50:43;14.63;;;10.80;;
18166;SDS011;9208;42.688;23.404;2022-11-04T02:53:17;15.70;;;11.43;;
18166;SDS011;9208;42.688;23.404;2022-11-04T02:55:54;15.07;;;11.13;;
18166;SDS011;9208;42.688;23.404;2022-11-04T02:58:24;17.60;;;11.30;;
18166;SDS011;9208;42.688;23.404;2022-11-04T03:01:04;15.80;;;11.63;;
18166;SDS011;9208;42.688;23.404;2022-11-04T03:03:33;15.17;;;11.87;;
18166;SDS011;9208;42.688;23.404;2022-11-04T03:06:04;15.40;;;11.07;;
18166;SDS011;9208;42.688;23.404;2022-11-04T03:08:34;16.53;;;10.93;;
18166;SDS011;9208;42.688;23.404;2022-11-04T03:11:13;14.20;;;10.70;;
18166;SDS011;9208;42.688;23.404;2022-11-04T03:13:49;14.37;;;11.70;;
18166;SDS011;9208;42.688;23.404;2022-11-04T03:16:23;17.53;;;11.20;;
18166;SDS011;9208;42.688;23.404;2022-11-04T03:18:56;15.27;;;11.33;;
18166;SDS011;9208;42.688;23.404;2022-11-04T03:21:26;14.57;;;11.17;;
18166;SDS011;9208;42.688;23.404;2022-11-04T03:23:55;14.93;;;11.67;;
18166;SDS011;9208;42.688;23.404;2022-11-04T03:29:32;14.90;;;11.63;;
18166;SDS011;9208;42.688;23.404;2022-11-04T03:34:38;14.33;;;11.53;;
18166;SDS011;9208;42.688;23.404;2022-11-04T03:37:03;16.00;;;11.30;;
18166;SDS011;9208;42.688;23.404;2022-11-04T03:39:30;16.50;;;12.13;;
18166;SDS011;9208;42.688;23.404;2022-11-04T03:41:56;18.20;;;12.17;;
18166;SDS011;9208;42.688;23.404;2022-11-04T03:44:24;14.27;;;11.37;;
18166;SDS011;9208;42.688;23.404;2022-11-04T03:46:54;18.93;;;12.57;;
18166;SDS011;9208;42.688;23.404;2022-11-04T03:49:20;12.30;;;11.00;;
18166;SDS011;9208;42.688;23.404;2022-11-04T03:51:47;17.33;;;12.10;;
18166;SDS011;9208;42.688;23.404;2022-11-04T03:54:13;14.97;;;11.10;;
18166;SDS011;9208;42.688;23.404;2022-11-04T04:02:13;14.87;;;12.17;;
18166;SDS011;9208;42.688;23.404;2022-11-04T04:05:23;15.57;;;12.47;;
18166;SDS011;9208;42.688;23.404;2022-11-04T04:08:09;19.50;;;12.37;;
18166;SDS011;9208;42.688;23.404;2022-11-04T04:10:51;16.00;;;11.50;;
18166;SDS011;9208;42.688;23.404;2022-11-04T04:16:43;17.63;;;12.03;;
18166;SDS011;9208;42.688;23.404;2022-11-04T04:19:20;14.43;;;12.57;;
18166;SDS011;9208;42.688;23.404;2022-11-04T04:24:52;17.47;;;12.13;;
18166;SDS011;9208;42.688;23.404;2022-11-04T04:27:39;15.63;;;11.80;;
18166;SDS011;9208;42.688;23.404;2022-11-04T04:30:08;16.00;;;12.27;;
18166;SDS011;9208;42.688;23.404;2022-11-04T04:32:37;16.17;;;12.63;;
18166;SDS011;9208;42.688;23.404;2022-11-04T04:35:08;16.17;;;12.13;;
18166;SDS011;9208;42.688;23.404;2022-11-04T04:37:53;17.53;;;12.97;;
18166;SDS011;9208;42.688;23.404;2022-11-04T04:40:42;18.00;;;13.10;;
18166;SDS011;9208;42.688;23.404;2022-11-04T04:43:30;16.97;;;12.63;;
18166;SDS011;9208;42.688;23.404;2022-11-04T04:46:14;16.47;;;12.17;;
18166;SDS011;9208;42.688;23.404;2022-11-04T04:48:40;16.10;;;11.53;;
18166;SDS011;9208;42.688;23.404;2022-11-04T04:51:05;19.63;;;12.70;;
18166;SDS011;9208;42.688;23.404;2022-11-04T04:53:31;19.40;;;12.70;;
18166;SDS011;9208;42.688;23.404;2022-11-04T04:55:56;18.80;;;12.77;;
18166;SDS011;9208;42.688;23.404;2022-11-04T04:58:21;18.00;;;12.23;;
18166;SDS011;9208;42.688;23.404;2022-11-04T05:00:47;16.83;;;12.63;;
18166;SDS011;9208;42.688;23.404;2022-11-04T05:03:12;16.93;;;12.27;;
18166;SDS011;9208;42.688;23.404;2022-11-04T05:05:38;19.53;;;13.67;;
18166;SDS011;9208;42.688;23.404;2022-11-04T05:08:04;18.17;;;12.57;;
18166;SDS011;9208;42.688;23.404;2022-11-04T05:10:30;16.90;;;13.10;;
18166;SDS011;9208;42.688;23.404;2022-11-04T05:12:56;18.93;;;13.40;;
18166;SDS011;9208;42.688;23.404;2022-11-04T05:15:42;17.57;;;12.97;;
18166;SDS011;9208;42.688;23.404;2022-11-04T05:18:07;17.50;;;12.93;;
18166;SDS011;9208;42.688;23.404;2022-11-04T05:20:32;17.13;;;12.60;;
18166;SDS011;9208;42.688;23.404;2022-11-04T05:22:58;14.87;;;13.27;;
18166;SDS011;9208;42.688;23.404;2022-11-04T05:25:24;16.07;;;13.23;;
18166;SDS011;9208;42.688;23.404;2022-11-04T05:27:49;15.50;;;12.77;;
18166;SDS011;9208;42.688;23.404;2022-11-04T05:30:15;17.40;;;14.20;;
18166;SDS011;9208;42.688;23.404;2022-11-04T05:32:43;21.70;;;13.27;;
18166;SDS011;9208;42.688;23.404;2022-11-04T05:35:08;17.60;;;13.73;;
18166;SDS011;9208;42.688;23.404;2022-11-04T05:37:34;16.53;;;13.53;;
18166;SDS011;9208;42.688;23.404;2022-11-04T05:39:59;19.07;;;13.83;;
18166;SDS011;9208;42.688;23.404;2022-11-04T05:42:24;15.23;;;13.13;;
18166;SDS011;9208;42.688;23.404;2022-11-04T05:44:50;20.90;;;14.07;;
18166;SDS011;9208;42.688;23.404;2022-11-04T05:47:15;18.13;;;14.37;;
18166;SDS011;9208;42.688;23.404;2022-11-04T05:49:41;20.03;;;14.17;;
18166;SDS011;9208;42.688;23.404;2022-11-04T05:52:06;16.63;;;13.30;;
18166;SDS011;9208;42.688;23.404;2022-11-04T05:54:32;19.90;;;14.43;;
18166;SDS011;9208;42.688;23.404;2022-11-04T05:56:57;19.23;;;14.30;;
18166;SDS011;9208;42.688;23.404;2022-11-04T05:59:22;19.90;;;14.30;;
18166;SDS011;9208;42.688;23.404;2022-11-04T06:01:48;19.20;;;14.77;;
18166;SDS011;9208;42.688;23.404;2022-11-04T06:04:15;19.43;;;14.73;;
18166;SDS011;9208;42.688;23.404;2022-11-04T06:06:42;22.17;;;14.63;;
18166;SDS011;9208;42.688;23.404;2022-11-04T06:09:07;23.70;;;16.37;;
18166;SDS011;9208;42.688;23.404;2022-11-04T06:11:33;21.60;;;15.27;;
18166;SDS011;9208;42.688;23.404;2022-11-04T06:14:00;22.90;;;16.00;;
18166;SDS011;9208;42.688;23.404;2022-11-04T06:16:25;22.23;;;15.77;;
18166;SDS011;9208;42.688;23.404;2022-11-04T06:18:51;24.37;;;16.70;;
18166;SDS011;9208;42.688;23.404;2022-11-04T06:21:19;23.77;;;14.80;;
18166;SDS011;9208;42.688;23.404;2022-11-04T06:23:46;21.00;;;14.80;;
18166;SDS011;9208;42.688;23.404;2022-11-04T06:26:13;21.40;;;16.43;;
18166;SDS011;9208;42.688;23.404;2022-11-04T06:28:39;20.73;;;15.97;;
18166;SDS011;9208;42.688;23.404;2022-11-04T06:31:05;21.10;;;16.00;;
18166;SDS011;9208;42.688;23.404;2022-11-04T06:33:32;23.90;;;17.00;;
18166;SDS011;9208;42.688;23.404;2022-11-04T06:35:58;20.50;;;16.77;;
18166;SDS011;9208;42.688;23.404;2022-11-04T06:38:24;23.03;;;16.37;;
18166;SDS011;9208;42.688;23.404;2022-11-04T06:40:51;23.73;;;17.97;;
18166;SDS011;9208;42.688;23.404;2022-11-04T06:43:16;29.23;;;18.53;;
18166;SDS011;9208;42.688;23.404;2022-11-04T06:45:42;22.23;;;16.73;;
18166;SDS011;9208;42.688;23.404;2022-11-04T06:48:07;30.57;;;19.00;;
18166;SDS011;9208;42.688;23.404;2022-11-04T06:50:33;28.40;;;18.40;;
18166;SDS011;9208;42.688;23.404;2022-11-04T06:52:59;24.70;;;18.20;;
18166;SDS011;9208;42.688;23.404;2022-11-04T06:55:24;24.50;;;18.10;;
18166;SDS011;9208;42.688;23.404;2022-11-04T06:57:50;29.50;;;18.60;;
18166;SDS011;9208;42.688;23.404;2022-11-04T07:00:15;23.47;;;18.30;;
18166;SDS011;9208;42.688;23.404;2022-11-04T07:02:41;23.87;;;17.37;;
18166;SDS011;9208;42.688;23.404;2022-11-04T07:05:07;27.33;;;18.53;;
18166;SDS011;9208;42.688;23.404;2022-11-04T07:07:33;23.07;;;17.90;;
18166;SDS011;9208;42.688;23.404;2022-11-04T07:09:58;25.23;;;18.93;;
18166;SDS011;9208;42.688;23.404;2022-11-04T07:12:23;26.63;;;17.50;;
18166;SDS011;9208;42.688;23.404;2022-11-04T07:14:52;24.43;;;17.13;;
18166;SDS011;9208;42.688;23.404;2022-11-04T07:17:19;24.67;;;18.00;;
18166;SDS011;9208;42.688;23.404;2022-11-04T07:19:44;24.07;;;18.13;;
18166;SDS011;9208;42.688;23.404;2022-11-04T07:22:10;26.30;;;17.90;;
18166;SDS011;9208;42.688;23.404;2022-11-04T07:24:35;23.63;;;18.37;;
18166;SDS011;9208;42.688;23.404;2022-11-04T07:27:01;26.77;;;18.30;;
18166;SDS011;9208;42.688;23.404;2022-11-04T07:29:26;25.50;;;16.83;;
18166;SDS011;9208;42.688;23.404;2022-11-04T07:31:52;27.77;;;17.63;;
18166;SDS011;9208;42.688;23.404;2022-11-04T07:34:18;25.47;;;17.30;;
18166;SDS011;9208;42.688;23.404;2022-11-04T07:36:43;23.17;;;17.23;;
18166;SDS011;9208;42.688;23.404;2022-11-04T07:39:09;26.07;;;17.77;;
18166;SDS011;9208;42.688;23.404;2022-11-04T07:41:34;24.80;;;17.73;;
18166;SDS011;9208;42.688;23.404;2022-11-04T07:44:00;27.33;;;17.90;;
18166;SDS011;9208;42.688;23.404;2022-11-04T07:46:29;27.27;;;16.70;;
18166;SDS011;9208;42.688;23.404;2022-11-04T07:48:56;25.23;;;17.03;;
18166;SDS011;9208;42.688;23.404;2022-11-04T07:51:22;23.80;;;17.57;;
18166;SDS011;9208;42.688;23.404;2022-11-04T07:53:48;30.00;;;17.40;;
18166;SDS011;9208;42.688;23.404;2022-11-04T07:56:14;31.67;;;18.23;;
18166;SDS011;9208;42.688;23.404;2022-11-04T07:58:40;30.60;;;18.73;;
18166;SDS011;9208;42.688;23.404;2022-11-04T08:01:08;31.40;;;18.60;;
18166;SDS011;9208;42.688;23.404;2022-11-04T08:03:36;26.53;;;17.47;;
18166;SDS011;9208;42.688;23.404;2022-11-04T08:06:02;30.57;;;17.63;;
18166;SDS011;9208;42.688;23.404;2022-11-04T08:08:29;23.37;;;16.57;;
18166;SDS011;9208;42.688;23.404;2022-11-04T08:10:59;23.97;;;16.47;;
18166;SDS011;9208;42.688;23.404;2022-11-04T08:13:27;25.93;;;17.27;;
18166;SDS011;9208;42.688;23.404;2022-11-04T08:15:54;23.77;;;16.97;;
18166;SDS011;9208;42.688;23.404;2022-11-04T08:18:20;21.40;;;16.30;;
18166;SDS011;9208;42.688;23.404;2022-11-04T08:20:48;24.23;;;17.03;;
18166;SDS011;9208;42.688;23.404;2022-11-04T08:23:15;22.80;;;15.87;;
18166;SDS011;9208;42.688;23.404;2022-11-04T08:25:42;22.97;;;17.37;;
18166;SDS011;9208;42.688;23.404;2022-11-04T08:28:08;21.57;;;16.03;;
18166;SDS011;9208;42.688;23.404;2022-11-04T08:30:37;24.53;;;17.40;;
18166;SDS011;9208;42.688;23.404;2022-11-04T08:33:03;25.13;;;16.23;;
18166;SDS011;9208;42.688;23.404;2022-11-04T08:35:29;22.80;;;16.23;;
18166;SDS011;9208;42.688;23.404;2022-11-04T08:37:55;21.93;;;16.37;;
18166;SDS011;9208;42.688;23.404;2022-11-04T08:40:21;22.40;;;17.27;;
18166;SDS011;9208;42.688;23.404;2022-11-04T08:42:49;24.67;;;16.67;;
18166;SDS011;9208;42.688;23.404;2022-11-04T08:45:14;19.50;;;15.63;;
18166;SDS011;9208;42.688;23.404;2022-11-04T08:47:41;21.37;;;16.37;;
18166;SDS011;9208;42.688;23.404;2022-11-04T08:50:06;20.43;;;15.90;;
18166;SDS011;9208;42.688;23.404;2022-11-04T08:52:32;21.33;;;15.97;;
18166;SDS011;9208;42.688;23.404;2022-11-04T08:54:58;20.50;;;15.87;;
18166;SDS011;9208;42.688;23.404;2022-11-04T08:57:24;24.47;;;16.60;;
18166;SDS011;9208;42.688;23.404;2022-11-04T08:59:50;22.90;;;16.50;;
18166;SDS011;9208;42.688;23.404;2022-11-04T09:02:15;22.73;;;15.47;;
18166;SDS011;9208;42.688;23.404;2022-11-04T09:04:41;21.73;;;15.20;;
18166;SDS011;9208;42.688;23.404;2022-11-04T09:07:09;25.60;;;15.50;;
18166;SDS011;9208;42.688;23.404;2022-11-04T09:09:35;24.20;;;15.47;;
18166;SDS011;9208;42.688;23.404;2022-11-04T09:12:00;24.27;;;15.03;;
18166;SDS011;9208;42.688;23.404;2022-11-04T09:14:26;20.13;;;15.77;;
18166;SDS011;9208;42.688;23.404;2022-11-04T09:16:51;20.60;;;14.97;;
18166;SDS011;9208;42.688;23.404;2022-11-04T09:19:18;23.80;;;15.37;;
18166;SDS011;9208;42.688;23.404;2022-11-04T09:21:43;21.37;;;15.20;;
18166;SDS011;9208;42.688;23.404;2022-11-04T09:24:09;19.57;;;14.77;;
18166;SDS011;9208;42.688;23.404;2022-11-04T09:26:35;19.37;;;14.93;;
18166;SDS011;9208;42.688;23.404;2022-11-04T09:29:01;19.23;;;14.60;;
18166;SDS011;9208;42.688;23.404;2022-11-04T09:31:27;22.07;;;15.37;;
18166;SDS011;9208;42.688;23.404;2022-11-04T09:33:54;20.63;;;15.13;;
18166;SDS011;9208;42.688;23.404;2022-11-04T09:36:20;17.23;;;14.13;;
18166;SDS011;9208;42.688;23.404;2022-11-04T09:38:45;20.40;;;15.03;;
18166;SDS011;9208;42.688;23.404;2022-11-04T09:41:24;20.10;;;14.70;;
18166;SDS011;9208;42.688;23.404;2022-11-04T09:44:22;19.93;;;14.40;;
18166;SDS011;9208;42.688;23.404;2022-11-04T09:46:55;25.13;;;15.63;;
18166;SDS011;9208;42.688;23.404;2022-11-04T09:49:24;19.27;;;14.17;;
18166;SDS011;9208;42.688;23.404;2022-11-04T09:51:52;17.33;;;14.30;;
18166;SDS011;9208;42.688;23.404;2022-11-04T09:54:28;19.77;;;13.80;;
18166;SDS011;9208;42.688;23.404;2022-11-04T09:57:00;18.80;;;14.13;;
18166;SDS011;9208;42.688;23.404;2022-11-04T09:59:31;16.67;;;12.50;;
18166;SDS011;9208;42.688;23.404;2022-11-04T10:10:59;15.13;;;10.93;;
18166;SDS011;9208;42.688;23.404;2022-11-04T10:13:40;20.27;;;10.60;;
18166;SDS011;9208;42.688;23.404;2022-11-04T10:21:46;14.20;;;10.73;;
18166;SDS011;9208;42.688;23.404;2022-11-04T10:24:41;15.00;;;10.97;;
18166;SDS011;9208;42.688;23.404;2022-11-04T10:27:26;14.80;;;10.30;;
18166;SDS011;9208;42.688;23.404;2022-11-04T10:29:57;15.70;;;11.03;;
18166;SDS011;9208;42.688;23.404;2022-11-04T10:32:27;16.20;;;10.53;;
18166;SDS011;9208;42.688;23.404;2022-11-04T10:37:50;20.00;;;11.43;;
18166;SDS011;9208;42.688;23.404;2022-11-04T10:40:22;17.53;;;10.53;;
18166;SDS011;9208;42.688;23.404;2022-11-04T10:42:53;15.73;;;11.67;;
18166;SDS011;9208;42.688;23.404;2022-11-04T10:45:24;18.70;;;11.37;;
18166;SDS011;9208;42.688;23.404;2022-11-04T10:47:59;16.23;;;10.53;;
18166;SDS011;9208;42.688;23.404;2022-11-04T10:53:21;19.40;;;10.73;;
18166;SDS011;9208;42.688;23.404;2022-11-04T10:58:33;16.70;;;10.90;;
18166;SDS011;9208;42.688;23.404;2022-11-04T11:01:20;18.07;;;10.37;;
18166;SDS011;9208;42.688;23.404;2022-11-04T11:03:47;12.90;;;9.80;;
18166;SDS011;9208;42.688;23.404;2022-11-04T11:08:38;15.10;;;9.50;;
18166;SDS011;9208;42.688;23.404;2022-11-04T11:11:06;15.10;;;9.10;;
18166;SDS011;9208;42.688;23.404;2022-11-04T11:13:34;16.90;;;9.33;;
18166;SDS011;9208;42.688;23.404;2022-11-04T11:18:31;10.73;;;9.10;;
18166;SDS011;9208;42.688;23.404;2022-11-04T11:21:05;11.87;;;9.10;;
18166;SDS011;9208;42.688;23.404;2022-11-04T11:23:45;13.70;;;9.80;;
18166;SDS011;9208;42.688;23.404;2022-11-04T11:26:19;13.17;;;9.23;;
18166;SDS011;9208;42.688;23.404;2022-11-04T11:28:53;15.30;;;10.20;;
18166;SDS011;9208;42.688;23.404;2022-11-04T11:31:21;14.10;;;9.87;;
18166;SDS011;9208;42.688;23.404;2022-11-04T11:33:54;16.10;;;9.67;;
18166;SDS011;9208;42.688;23.404;2022-11-04T11:36:22;12.07;;;9.37;;
18166;SDS011;9208;42.688;23.404;2022-11-04T11:41:22;15.10;;;10.20;;
18166;SDS011;9208;42.688;23.404;2022-11-04T11:43:55;15.93;;;10.50;;
18166;SDS011;9208;42.688;23.404;2022-11-04T11:46:29;14.83;;;10.30;;
18166;SDS011;9208;42.688;23.404;2022-11-04T11:48:58;14.83;;;9.93;;
18166;SDS011;9208;42.688;23.404;2022-11-04T11:51:27;14.07;;;10.03;;
18166;SDS011;9208;42.688;23.404;2022-11-04T11:56:47;11.67;;;8.97;;
18166;SDS011;9208;42.688;23.404;2022-11-04T12:01:49;13.07;;;9.27;;
18166;SDS011;9208;42.688;23.404;2022-11-04T12:04:22;14.80;;;10.20;;
18166;SDS011;9208;42.688;23.404;2022-11-04T12:07:06;15.73;;;9.40;;
18166;SDS011;9208;42.688;23.404;2022-11-04T12:12:18;14.67;;;8.67;;
18166;SDS011;9208;42.688;23.404;2022-11-04T12:20:40;12.37;;;9.00;;
18166;SDS011;9208;42.688;23.404;2022-11-04T12:23:21;17.10;;;9.77;;
18166;SDS011;9208;42.688;23.404;2022-11-04T12:36:57;17.57;;;9.93;;
18166;SDS011;9208;42.688;23.404;2022-11-04T12:47:36;15.70;;;10.00;;
18166;SDS011;9208;42.688;23.404;2022-11-04T13:01:04;14.00;;;10.20;;
18166;SDS011;9208;42.688;23.404;2022-11-04T13:03:51;14.80;;;10.63;;
18166;SDS011;9208;42.688;23.404;2022-11-04T13:06:24;14.57;;;10.27;;
18166;SDS011;9208;42.688;23.404;2022-11-04T13:08:58;13.80;;;10.60;;
18166;SDS011;9208;42.688;23.404;2022-11-04T13:11:39;14.53;;;10.03;;
18166;SDS011;9208;42.688;23.404;2022-11-04T13:14:16;15.83;;;10.87;;
18166;SDS011;9208;42.688;23.404;2022-11-04T13:16:53;16.67;;;10.20;;
18166;SDS011;9208;42.688;23.404;2022-11-04T13:22:30;14.70;;;10.33;;
18166;SDS011;9208;42.688;23.404;2022-11-04T13:25:03;15.17;;;11.07;;
18166;SDS011;9208;42.688;23.404;2022-11-04T13:27:34;17.87;;;11.10;;
18166;SDS011;9208;42.688;23.404;2022-11-04T13:32:39;16.40;;;11.17;;
18166;SDS011;9208;42.688;23.404;2022-11-04T13:35:22;16.10;;;10.40;;
18166;SDS011;9208;42.688;23.404;2022-11-04T13:38:04;15.07;;;10.80;;
18166;SDS011;9208;42.688;23.404;2022-11-04T13:43:34;16.83;;;10.20;;
18166;SDS011;9208;42.688;23.404;2022-11-04T13:46:26;16.97;;;10.33;;
18166;SDS011;9208;42.688;23.404;2022-11-04T13:49:05;13.27;;;10.10;;
18166;SDS011;9208;42.688;23.404;2022-11-04T13:51:43;13.97;;;10.50;;
18166;SDS011;9208;42.688;23.404;2022-11-04T13:57:07;16.47;;;10.07;;
18166;SDS011;9208;42.688;23.404;2022-11-04T13:59:36;15.90;;;11.00;;
18166;SDS011;9208;42.688;23.404;2022-11-04T14:04:42;13.27;;;10.03;;
18166;SDS011;9208;42.688;23.404;2022-11-04T14:07:12;12.53;;;10.20;;
18166;SDS011;9208;42.688;23.404;2022-11-04T14:14:51;13.43;;;10.17;;
18166;SDS011;9208;42.688;23.404;2022-11-04T14:19:57;14.13;;;10.27;;
18166;SDS011;9208;42.688;23.404;2022-11-04T14:25:27;15.57;;;10.10;;
18166;SDS011;9208;42.688;23.404;2022-11-04T14:30:51;14.97;;;11.00;;
18166;SDS011;9208;42.688;23.404;2022-11-04T14:38:57;15.07;;;10.53;;
18166;SDS011;9208;42.688;23.404;2022-11-04T14:44:06;16.07;;;9.83;;
18166;SDS011;9208;42.688;23.404;2022-11-04T14:46:45;15.60;;;10.30;;
18166;SDS011;9208;42.688;23.404;2022-11-04T14:52:07;16.80;;;11.17;;
18166;SDS011;9208;42.688;23.404;2022-11-04T14:54:43;19.73;;;10.30;;
18166;SDS011;9208;42.688;23.404;2022-11-04T14:57:12;13.27;;;9.90;;
18166;SDS011;9208;42.688;23.404;2022-11-04T14:59:42;19.27;;;10.70;;
18166;SDS011;9208;42.688;23.404;2022-11-04T15:02:16;15.67;;;10.90;;
18166;SDS011;9208;42.688;23.404;2022-11-04T15:04:47;16.70;;;10.97;;
18166;SDS011;9208;42.688;23.404;2022-11-04T15:09:55;19.07;;;11.63;;
18166;SDS011;9208;42.688;23.404;2022-11-04T15:12:20;14.60;;;11.10;;
18166;SDS011;9208;42.688;23.404;2022-11-04T15:17:48;16.77;;;11.47;;
18166;SDS011;9208;42.688;23.404;2022-11-04T15:20:20;15.27;;;11.37;;
18166;SDS011;9208;42.688;23.404;2022-11-04T15:22:49;16.10;;;10.97;;
18166;SDS011;9208;42.688;23.404;2022-11-04T15:25:15;15.93;;;11.60;;
18166;SDS011;9208;42.688;23.404;2022-11-04T15:27:42;17.20;;;11.57;;
18166;SDS011;9208;42.688;23.404;2022-11-04T15:30:21;18.73;;;13.40;;
18166;SDS011;9208;42.688;23.404;2022-11-04T15:32:57;18.40;;;12.63;;
18166;SDS011;9208;42.688;23.404;2022-11-04T15:35:25;16.20;;;12.37;;
18166;SDS011;9208;42.688;23.404;2022-11-04T15:37:52;14.73;;;12.07;;
18166;SDS011;9208;42.688;23.404;2022-11-04T15:40:19;16.57;;;11.73;;
18166;SDS011;9208;42.688;23.404;2022-11-04T15:42:46;16.90;;;12.53;;
18166;SDS011;9208;42.688;23.404;2022-11-04T15:45:29;17.43;;;11.97;;
18166;SDS011;9208;42.688;23.404;2022-11-04T15:53:49;15.63;;;11.60;;
18166;SDS011;9208;42.688;23.404;2022-11-04T15:56:20;15.27;;;11.80;;
18166;SDS011;9208;42.688;23.404;2022-11-04T15:58:50;15.60;;;12.67;;
18166;SDS011;9208;42.688;23.404;2022-11-04T16:01:18;20.93;;;13.07;;
18166;SDS011;9208;42.688;23.404;2022-11-04T16:03:51;17.80;;;12.73;;
18166;SDS011;9208;42.688;23.404;2022-11-04T16:06:31;16.67;;;11.93;;
18166;SDS011;9208;42.688;23.404;2022-11-04T16:08:59;20.60;;;13.17;;
18166;SDS011;9208;42.688;23.404;2022-11-04T16:11:30;16.97;;;13.27;;
18166;SDS011;9208;42.688;23.404;2022-11-04T16:14:13;17.93;;;12.27;;
18166;SDS011;9208;42.688;23.404;2022-11-04T16:16:49;18.23;;;13.53;;
18166;SDS011;9208;42.688;23.404;2022-11-04T16:19:17;19.47;;;13.50;;
18166;SDS011;9208;42.688;23.404;2022-11-04T16:21:45;19.77;;;12.10;;
18166;SDS011;9208;42.688;23.404;2022-11-04T16:24:22;15.20;;;12.77;;
18166;SDS011;9208;42.688;23.404;2022-11-04T16:26:49;15.67;;;12.20;;
18166;SDS011;9208;42.688;23.404;2022-11-04T16:29:25;18.13;;;12.60;;
18166;SDS011;9208;42.688;23.404;2022-11-04T16:34:48;24.23;;;12.70;;
18166;SDS011;9208;42.688;23.404;2022-11-04T16:37:15;19.07;;;12.97;;
18166;SDS011;9208;42.688;23.404;2022-11-04T16:39:42;19.00;;;12.90;;
18166;SDS011;9208;42.688;23.404;2022-11-04T16:42:09;17.83;;;12.40;;
18166;SDS011;9208;42.688;23.404;2022-11-04T16:44:36;22.10;;;12.90;;
18166;SDS011;9208;42.688;23.404;2022-11-04T16:47:03;19.30;;;13.00;;
18166;SDS011;9208;42.688;23.404;2022-11-04T16:49:29;21.20;;;12.43;;
18166;SDS011;9208;42.688;23.404;2022-11-04T16:51:55;16.67;;;12.17;;
18166;SDS011;9208;42.688;23.404;2022-11-04T16:54:25;15.03;;;12.13;;
18166;SDS011;9208;42.688;23.404;2022-11-04T16:56:52;17.67;;;12.50;;
18166;SDS011;9208;42.688;23.404;2022-11-04T16:59:20;15.43;;;11.80;;
18166;SDS011;9208;42.688;23.404;2022-11-04T17:01:46;17.77;;;11.60;;
18166;SDS011;9208;42.688;23.404;2022-11-04T17:04:11;15.80;;;11.57;;
18166;SDS011;9208;42.688;23.404;2022-11-04T17:06:37;17.50;;;12.37;;
18166;SDS011;9208;42.688;23.404;2022-11-04T17:09:05;15.00;;;12.00;;
18166;SDS011;9208;42.688;23.404;2022-11-04T17:11:42;14.17;;;11.37;;
18166;SDS011;9208;42.688;23.404;2022-11-04T17:14:07;17.10;;;12.00;;
18166;SDS011;9208;42.688;23.404;2022-11-04T17:16:33;16.07;;;12.10;;
18166;SDS011;9208;42.688;23.404;2022-11-04T17:18:58;15.03;;;12.10;;
18166;SDS011;9208;42.688;23.404;2022-11-04T17:21:24;16.43;;;11.90;;
18166;SDS011;9208;42.688;23.404;2022-11-04T17:23:50;16.93;;;12.83;;